Seymour B Durst — WDC4078 — position and weather

sailwx.info

Track history (hours):
 
Tides and Currents Weather Stations Pressure Air Temp Water Temp Dewpoint Dewpoint Depression Visibility Wind Speed Wind Dir Waves Ship Positions

Seymour B Durst

Owner: NEW YORK TRANS HARBOR LLC, BROOKLYN, NY. More information available from US FCC via Universal Licensing System and Coast Guard Vessel Documentation Center.

Last reported at 2018-Apr-20 12:30 UTC. Time now 2018-Apr-26 03:34 UTC.
Position N 40°40' W 074°01'.

Type: Ship. MMSI: 367018750.

Date/timePositionNaut miles runAvg speedWind from/ knotsBaromVisibWave heightAir tempDewpointWater temp
2018-Apr-20 12:30N 40°40' W 074°01'0 0.0
2018-Apr-19 23:54N 40°40' W 074°01'0 0.5
2018-Apr-19 23:30N 40°40' W 074°01'1 1.4
2018-Apr-19 23:00N 40°41' W 074°01'1 2.8
2018-Apr-19 22:30N 40°42' W 074°00'2 4.1
2018-Apr-19 22:00N 40°40' W 074°01'1 1.7
2018-Apr-19 21:30N 40°41' W 074°01'1 2.4
2018-Apr-19 21:00N 40°42' W 074°00'2 4.0
2018-Apr-19 20:30N 40°40' W 074°01'1 1.8
2018-Apr-19 20:00N 40°41' W 074°01'1 2.3
2018-Apr-19 19:30N 40°42' W 074°00'2 4.0
2018-Apr-19 19:00N 40°40' W 074°01'1 1.1
2018-Apr-19 18:31N 40°41' W 074°01'2 3.3
2018-Apr-19 18:01N 40°42' W 074°00'2 3.7
2018-Apr-19 17:30N 40°40' W 074°01'0 0.0
2018-Apr-19 17:00N 40°40' W 074°01'0 0.0
2018-Apr-19 16:30N 40°40' W 074°01'0 0.0
2018-Apr-19 16:00N 40°40' W 074°01'0 0.0
2018-Apr-19 15:30N 40°40' W 074°01'2 4.1
2018-Apr-19 15:00N 40°42' W 074°00'1 2.8
2018-Apr-19 14:30N 40°42' W 074°02'1 2.8
2018-Apr-19 14:01N 40°42' W 074°00'2 0.1
2018-Apr-18 00:00N 40°40' W 074°01'0 0.4
2018-Apr-17 23:30N 40°40' W 074°01'1 1.3
2018-Apr-17 23:00N 40°41' W 074°01'1 2.9
2018-Apr-17 22:30N 40°42' W 074°00'2 3.8
2018-Apr-17 21:59N 40°40' W 074°01'0 0.0
2018-Apr-17 21:30N 40°40' W 074°01'2 3.8
2018-Apr-17 20:59N 40°42' W 074°00'2 4.0
2018-Apr-17 20:30N 40°40' W 074°01'0 0.7
2018-Apr-17 20:00N 40°41' W 074°01'2 3.1
2018-Apr-17 19:30N 40°42' W 074°00'2 4.1
2018-Apr-17 19:00N 40°40' W 074°01'1 1.1
2018-Apr-17 18:30N 40°41' W 074°01'2 3.3
2018-Apr-17 18:01N 40°42' W 074°00'2 0.1
2018-Apr-16 22:26N 40°40' W 074°01'1 1.2
2018-Apr-16 22:01N 40°41' W 074°01'3 5.2
2018-Apr-16 21:31N 40°43' W 074°01'2 3.2
2018-Apr-16 21:00N 40°42' W 074°02'1 2.3
2018-Apr-16 20:31N 40°42' W 074°01'3 5.4
2018-Apr-16 20:01N 40°45' W 074°01'2 5.0
2018-Apr-16 19:31N 40°42' W 074°00'3 6.5
2018-Apr-16 19:00N 40°46' W 074°01'5 9.3
2018-Apr-16 18:30N 40°41' W 074°03'2 3.1
2018-Apr-16 18:00N 40°42' W 074°01'2 4.1
2018-Apr-16 17:31N 40°44' W 074°01'2 4.3
2018-Apr-16 17:00N 40°42' W 074°00'3 5.6
2018-Apr-16 16:30N 40°45' W 074°01'3 5.9
2018-Apr-16 16:01N 40°42' W 073°60'1 2.7
2018-Apr-16 15:30N 40°43' W 074°01'0 0.7
2018-Apr-16 15:01N 40°43' W 074°01'1 2.7
2018-Apr-16 14:31N 40°42' W 074°00'3 6.9
2018-Apr-16 14:00N 40°46' W 074°00'510.9
2018-Apr-16 13:31N 40°40' W 074°01'0 0.0
2018-Apr-15 21:56N 40°40' W 074°01'2 4.4
2018-Apr-15 21:30N 40°42' W 074°01'2 3.1
2018-Apr-15 21:00N 40°44' W 074°01'2 3.4
2018-Apr-15 20:30N 40°42' W 074°00'3 6.9
2018-Apr-15 20:00N 40°46' W 074°00'4 7.3
2018-Apr-15 19:30N 40°42' W 073°60'3 5.5
2018-Apr-15 19:01N 40°45' W 074°01'4 7.6
2018-Apr-15 18:30N 40°41' W 074°03'2 3.0
2018-Apr-15 18:01N 40°42' W 074°01'2 3.3
2018-Apr-15 17:30N 40°44' W 074°01'2 3.6
2018-Apr-15 17:00N 40°42' W 074°00'3 7.0
2018-Apr-15 16:30N 40°46' W 074°00'4 7.2
2018-Apr-15 16:00N 40°42' W 073°60'4 6.9
2018-Apr-15 15:30N 40°46' W 074°00'510.1
2018-Apr-15 15:00N 40°41' W 074°03'2 3.0
2018-Apr-15 14:30N 40°42' W 074°01'4 7.7
2018-Apr-15 14:00N 40°46' W 074°00'5 0.4
2018-Apr-14 23:03N 40°40' W 074°01'0 0.0
2018-Apr-14 22:59N 40°40' W 074°01'2 4.4
2018-Apr-14 22:30N 40°42' W 074°00'3 6.8
2018-Apr-14 22:00N 40°46' W 074°00'4 8.2
2018-Apr-14 21:31N 40°42' W 074°01'2 3.9
2018-Apr-14 21:00N 40°44' W 074°01'1 1.9
2018-Apr-14 20:30N 40°45' W 074°01'2 4.9
2018-Apr-14 20:00N 40°42' W 074°00'3 6.6
2018-Apr-14 19:30N 40°46' W 074°01'4 7.4
2018-Apr-14 19:00N 40°42' W 074°02'1 2.7
2018-Apr-14 18:30N 40°42' W 074°00'3 6.7
2018-Apr-14 17:59N 40°46' W 074°00'510.3
2018-Apr-14 17:30N 40°41' W 074°03'2 3.1
2018-Apr-14 17:01N 40°42' W 074°01'4 7.0
2018-Apr-14 16:31N 40°46' W 074°00'3 6.8
2018-Apr-14 16:00N 40°42' W 073°60'4 7.0
2018-Apr-14 15:30N 40°46' W 074°00'510.0
2018-Apr-14 15:00N 40°41' W 074°03'2 3.5
2018-Apr-14 14:30N 40°42' W 074°01'4 7.8
2018-Apr-14 14:00N 40°46' W 074°00'2 4.8
2018-Apr-14 13:30N 40°44' W 074°01'3 6.4
2018-Apr-14 13:00N 40°40' W 074°01'0 0.0
2018-Apr-14 12:30N 40°40' W 074°01'0 0.0
2018-Apr-13 22:39N 40°40' W 074°01'0 0.1
2018-Apr-13 22:31N 40°40' W 074°01'2 4.1
2018-Apr-13 22:01N 40°42' W 074°00'3 6.7
2018-Apr-13 21:30N 40°46' W 074°00'4 9.1
2018-Apr-13 21:00N 40°42' W 074°02'1 2.0
2018-Apr-13 20:30N 40°42' W 074°01'1 1.8
2018-Apr-13 20:01N 40°43' W 074°01'1 2.7
2018-Apr-13 19:30N 40°42' W 074°00'4 7.0
2018-Apr-13 19:00N 40°46' W 074°00'4 7.2
2018-Apr-13 18:30N 40°42' W 073°60'3 6.8
2018-Apr-13 18:00N 40°46' W 074°01'5 9.2
2018-Apr-13 17:30N 40°41' W 074°03'1 2.6
2018-Apr-13 17:00N 40°42' W 074°01'3 6.3
2018-Apr-13 16:30N 40°45' W 074°01'3 5.9
2018-Apr-13 16:00N 40°42' W 074°00'3 6.7
2018-Apr-13 15:30N 40°46' W 074°00'5 9.8
2018-Apr-13 15:01N 40°41' W 074°02'2 3.8
2018-Apr-13 14:31N 40°42' W 074°00'4 7.0
2018-Apr-13 14:00N 40°46' W 074°00'5 9.7
2018-Apr-13 13:30N 40°41' W 074°02'1 0.0
2018-Apr-11 21:55N 40°40' W 074°01'2 4.0
2018-Apr-11 21:30N 40°42' W 074°01'3 6.1
2018-Apr-11 21:00N 40°45' W 074°01'3 5.4
2018-Apr-11 20:30N 40°42' W 074°00'3 6.7
2018-Apr-11 19:59N 40°46' W 074°00'4 7.3
2018-Apr-11 19:30N 40°42' W 073°60'3 5.5
2018-Apr-11 19:00N 40°45' W 074°01'4 7.7
2018-Apr-11 18:31N 40°41' W 074°03'2 3.1
2018-Apr-11 18:00N 40°42' W 074°01'2 4.5
2018-Apr-11 17:30N 40°44' W 074°01'2 4.5
2018-Apr-11 17:00N 40°42' W 074°00'3 6.8
2018-Apr-11 16:30N 40°46' W 074°00'4 7.2
2018-Apr-11 16:00N 40°42' W 073°60'1 2.8
2018-Apr-11 15:31N 40°43' W 074°01'1 2.4
2018-Apr-11 15:01N 40°42' W 074°02'1 1.8
2018-Apr-11 14:30N 40°42' W 074°01'4 7.8
2018-Apr-11 14:00N 40°46' W 074°00'510.9
2018-Apr-11 13:31N 40°40' W 074°01'0 0.0
2018-Apr-11 13:01N 40°40' W 074°01'0 0.0
2018-Apr-10 21:45N 40°40' W 074°01'2 6.9
2018-Apr-10 21:31N 40°42' W 074°00'2 4.9
2018-Apr-10 21:00N 40°44' W 074°01'2 4.4
2018-Apr-10 20:30N 40°42' W 074°00'3 6.9
2018-Apr-10 20:00N 40°46' W 074°00'4 7.0
2018-Apr-10 19:30N 40°42' W 073°60'1 3.0
2018-Apr-10 19:01N 40°43' W 074°01'2 3.1
2018-Apr-10 18:30N 40°42' W 074°02'2 3.0
2018-Apr-10 18:01N 40°42' W 074°00'3 5.3
2018-Apr-10 17:30N 40°45' W 074°01'3 5.1
2018-Apr-10 17:00N 40°42' W 074°00'3 6.6
2018-Apr-10 16:29N 40°46' W 074°00'4 7.5
2018-Apr-10 16:00N 40°42' W 073°60'2 4.2
2018-Apr-10 15:31N 40°44' W 074°01'3 5.3
2018-Apr-10 15:01N 40°42' W 074°02'2 3.5
2018-Apr-10 14:30N 40°42' W 074°00'3 6.8
2018-Apr-10 14:00N 40°46' W 074°00'511.2
2018-Apr-10 13:30N 40°40' W 074°01'  
Track history (hours):
 
Tides and Currents Weather Stations Pressure Air Temp Water Temp Dewpoint Dewpoint Depression Visibility Wind Speed Wind Dir Waves Ship Positions

Seymour B Durst

Owner: NEW YORK TRANS HARBOR LLC, BROOKLYN, NY. More information available from US FCC via Universal Licensing System and Coast Guard Vessel Documentation Center.

Last reported at 2018-Apr-20 12:30 UTC. Time now 2018-Apr-26 03:34 UTC.
Position N 40°40' W 074°01'.

Type: Ship. MMSI: 367018750.

Date/timePositionNaut miles runAvg speedWind from/ knotsBaromVisibWave heightAir tempDewpointWater temp
2018-Apr-20 12:30N 40°40' W 074°01'0 0.0
2018-Apr-19 23:54N 40°40' W 074°01'0 0.5
2018-Apr-19 23:30N 40°40' W 074°01'1 1.4
2018-Apr-19 23:00N 40°41' W 074°01'1 2.8
2018-Apr-19 22:30N 40°42' W 074°00'2 4.1
2018-Apr-19 22:00N 40°40' W 074°01'1 1.7
2018-Apr-19 21:30N 40°41' W 074°01'1 2.4
2018-Apr-19 21:00N 40°42' W 074°00'2 4.0
2018-Apr-19 20:30N 40°40' W 074°01'1 1.8
2018-Apr-19 20:00N 40°41' W 074°01'1 2.3
2018-Apr-19 19:30N 40°42' W 074°00'2 4.0
2018-Apr-19 19:00N 40°40' W 074°01'1 1.1
2018-Apr-19 18:31N 40°41' W 074°01'2 3.3
2018-Apr-19 18:01N 40°42' W 074°00'2 3.7
2018-Apr-19 17:30N 40°40' W 074°01'0 0.0
2018-Apr-19 17:00N 40°40' W 074°01'0 0.0
2018-Apr-19 16:30N 40°40' W 074°01'0 0.0
2018-Apr-19 16:00N 40°40' W 074°01'0 0.0
2018-Apr-19 15:30N 40°40' W 074°01'2 4.1
2018-Apr-19 15:00N 40°42' W 074°00'1 2.8
2018-Apr-19 14:30N 40°42' W 074°02'1 2.8
2018-Apr-19 14:01N 40°42' W 074°00'2 0.1
2018-Apr-18 00:00N 40°40' W 074°01'0 0.4
2018-Apr-17 23:30N 40°40' W 074°01'1 1.3
2018-Apr-17 23:00N 40°41' W 074°01'1 2.9
2018-Apr-17 22:30N 40°42' W 074°00'2 3.8
2018-Apr-17 21:59N 40°40' W 074°01'0 0.0
2018-Apr-17 21:30N 40°40' W 074°01'2 3.8
2018-Apr-17 20:59N 40°42' W 074°00'2 4.0
2018-Apr-17 20:30N 40°40' W 074°01'0 0.7
2018-Apr-17 20:00N 40°41' W 074°01'2 3.1
2018-Apr-17 19:30N 40°42' W 074°00'2 4.1
2018-Apr-17 19:00N 40°40' W 074°01'1 1.1
2018-Apr-17 18:30N 40°41' W 074°01'2 3.3
2018-Apr-17 18:01N 40°42' W 074°00'2 0.1
2018-Apr-16 22:26N 40°40' W 074°01'1 1.2
2018-Apr-16 22:01N 40°41' W 074°01'3 5.2
2018-Apr-16 21:31N 40°43' W 074°01'2 3.2
2018-Apr-16 21:00N 40°42' W 074°02'1 2.3
2018-Apr-16 20:31N 40°42' W 074°01'3 5.4
2018-Apr-16 20:01N 40°45' W 074°01'2 5.0
2018-Apr-16 19:31N 40°42' W 074°00'3 6.5
2018-Apr-16 19:00N 40°46' W 074°01'5 9.3
2018-Apr-16 18:30N 40°41' W 074°03'2 3.1
2018-Apr-16 18:00N 40°42' W 074°01'2 4.1
2018-Apr-16 17:31N 40°44' W 074°01'2 4.3
2018-Apr-16 17:00N 40°42' W 074°00'3 5.6
2018-Apr-16 16:30N 40°45' W 074°01'3 5.9
2018-Apr-16 16:01N 40°42' W 073°60'1 2.7
2018-Apr-16 15:30N 40°43' W 074°01'0 0.7
2018-Apr-16 15:01N 40°43' W 074°01'1 2.7
2018-Apr-16 14:31N 40°42' W 074°00'3 6.9
2018-Apr-16 14:00N 40°46' W 074°00'510.9
2018-Apr-16 13:31N 40°40' W 074°01'0 0.0
2018-Apr-15 21:56N 40°40' W 074°01'2 4.4
2018-Apr-15 21:30N 40°42' W 074°01'2 3.1
2018-Apr-15 21:00N 40°44' W 074°01'2 3.4
2018-Apr-15 20:30N 40°42' W 074°00'3 6.9
2018-Apr-15 20:00N 40°46' W 074°00'4 7.3
2018-Apr-15 19:30N 40°42' W 073°60'3 5.5
2018-Apr-15 19:01N 40°45' W 074°01'4 7.6
2018-Apr-15 18:30N 40°41' W 074°03'2 3.0
2018-Apr-15 18:01N 40°42' W 074°01'2 3.3
2018-Apr-15 17:30N 40°44' W 074°01'2 3.6
2018-Apr-15 17:00N 40°42' W 074°00'3 7.0
2018-Apr-15 16:30N 40°46' W 074°00'4 7.2
2018-Apr-15 16:00N 40°42' W 073°60'4 6.9
2018-Apr-15 15:30N 40°46' W 074°00'510.1
2018-Apr-15 15:00N 40°41' W 074°03'2 3.0
2018-Apr-15 14:30N 40°42' W 074°01'4 7.7
2018-Apr-15 14:00N 40°46' W 074°00'5 0.4
2018-Apr-14 23:03N 40°40' W 074°01'0 0.0
2018-Apr-14 22:59N 40°40' W 074°01'2 4.4
2018-Apr-14 22:30N 40°42' W 074°00'3 6.8
2018-Apr-14 22:00N 40°46' W 074°00'4 8.2
2018-Apr-14 21:31N 40°42' W 074°01'2 3.9
2018-Apr-14 21:00N 40°44' W 074°01'1 1.9
2018-Apr-14 20:30N 40°45' W 074°01'2 4.9
2018-Apr-14 20:00N 40°42' W 074°00'3 6.6
2018-Apr-14 19:30N 40°46' W 074°01'4 7.4
2018-Apr-14 19:00N 40°42' W 074°02'1 2.7
2018-Apr-14 18:30N 40°42' W 074°00'3 6.7
2018-Apr-14 17:59N 40°46' W 074°00'510.3
2018-Apr-14 17:30N 40°41' W 074°03'2 3.1
2018-Apr-14 17:01N 40°42' W 074°01'4 7.0
2018-Apr-14 16:31N 40°46' W 074°00'3 6.8
2018-Apr-14 16:00N 40°42' W 073°60'4 7.0
2018-Apr-14 15:30N 40°46' W 074°00'510.0
2018-Apr-14 15:00N 40°41' W 074°03'2 3.5
2018-Apr-14 14:30N 40°42' W 074°01'4 7.8
2018-Apr-14 14:00N 40°46' W 074°00'2 4.8
2018-Apr-14 13:30N 40°44' W 074°01'3 6.4
2018-Apr-14 13:00N 40°40' W 074°01'0 0.0
2018-Apr-14 12:30N 40°40' W 074°01'0 0.0
2018-Apr-13 22:39N 40°40' W 074°01'0 0.1
2018-Apr-13 22:31N 40°40' W 074°01'2 4.1
2018-Apr-13 22:01N 40°42' W 074°00'3 6.7
2018-Apr-13 21:30N 40°46' W 074°00'4 9.1
2018-Apr-13 21:00N 40°42' W 074°02'1 2.0
2018-Apr-13 20:30N 40°42' W 074°01'1 1.8
2018-Apr-13 20:01N 40°43' W 074°01'1 2.7
2018-Apr-13 19:30N 40°42' W 074°00'4 7.0
2018-Apr-13 19:00N 40°46' W 074°00'4 7.2
2018-Apr-13 18:30N 40°42' W 073°60'3 6.8
2018-Apr-13 18:00N 40°46' W 074°01'5 9.2
2018-Apr-13 17:30N 40°41' W 074°03'1 2.6
2018-Apr-13 17:00N 40°42' W 074°01'3 6.3
2018-Apr-13 16:30N 40°45' W 074°01'3 5.9
2018-Apr-13 16:00N 40°42' W 074°00'3 6.7
2018-Apr-13 15:30N 40°46' W 074°00'5 9.8
2018-Apr-13 15:01N 40°41' W 074°02'2 3.8
2018-Apr-13 14:31N 40°42' W 074°00'4 7.0
2018-Apr-13 14:00N 40°46' W 074°00'5 9.7
2018-Apr-13 13:30N 40°41' W 074°02'1 0.0
2018-Apr-11 21:55N 40°40' W 074°01'2 4.0
2018-Apr-11 21:30N 40°42' W 074°01'3 6.1
2018-Apr-11 21:00N 40°45' W 074°01'3 5.4
2018-Apr-11 20:30N 40°42' W 074°00'3 6.7
2018-Apr-11 19:59N 40°46' W 074°00'4 7.3
2018-Apr-11 19:30N 40°42' W 073°60'3 5.5
2018-Apr-11 19:00N 40°45' W 074°01'4 7.7
2018-Apr-11 18:31N 40°41' W 074°03'2 3.1
2018-Apr-11 18:00N 40°42' W 074°01'2 4.5
2018-Apr-11 17:30N 40°44' W 074°01'2 4.5
2018-Apr-11 17:00N 40°42' W 074°00'3 6.8
2018-Apr-11 16:30N 40°46' W 074°00'4 7.2
2018-Apr-11 16:00N 40°42' W 073°60'1 2.8
2018-Apr-11 15:31N 40°43' W 074°01'1 2.4
2018-Apr-11 15:01N 40°42' W 074°02'1 1.8
2018-Apr-11 14:30N 40°42' W 074°01'4 7.8
2018-Apr-11 14:00N 40°46' W 074°00'510.9
2018-Apr-11 13:31N 40°40' W 074°01'0 0.0
2018-Apr-11 13:01N 40°40' W 074°01'0 0.0
2018-Apr-10 21:45N 40°40' W 074°01'2 6.9
2018-Apr-10 21:31N 40°42' W 074°00'2 4.9
2018-Apr-10 21:00N 40°44' W 074°01'2 4.4
2018-Apr-10 20:30N 40°42' W 074°00'3 6.9
2018-Apr-10 20:00N 40°46' W 074°00'4 7.0
2018-Apr-10 19:30N 40°42' W 073°60'1 3.0
2018-Apr-10 19:01N 40°43' W 074°01'2 3.1
2018-Apr-10 18:30N 40°42' W 074°02'2 3.0
2018-Apr-10 18:01N 40°42' W 074°00'3 5.3
2018-Apr-10 17:30N 40°45' W 074°01'3 5.1
2018-Apr-10 17:00N 40°42' W 074°00'3 6.6
2018-Apr-10 16:29N 40°46' W 074°00'4 7.5
2018-Apr-10 16:00N 40°42' W 073°60'2 4.2
2018-Apr-10 15:31N 40°44' W 074°01'3 5.3
2018-Apr-10 15:01N 40°42' W 074°02'2 3.5
2018-Apr-10 14:30N 40°42' W 074°00'3 6.8
2018-Apr-10 14:00N 40°46' W 074°00'511.2
2018-Apr-10 13:30N 40°40' W 074°01'  

Dump ship's entire track history